Latest Weather Observations for Holmes Reef

IDQ60801

Issued at 4:32 pm EST Thursday 11 February 2016 (issued every 30 minutes, with the page automatically refreshed every 10 minutes)

About weather observations | Map of weather stations | Latest weather observations for QLD | Other Formats
Station Details ID: 200732 Name: HOLMES REEF Lat: -16.47 Lon: 147.87 Height: 1.9 m
Data from the previous 72 hours. | See also: Recent months at Holmes Reef
Date/Time
EST
Temp
°C
App
Temp
°C
Dew
Point
Rel
Hum
%
Delta-T
°C
Wind Press
QNH
hPa
Press
MSL
hPa
Rain
since 9 am
mm
Dir
 
Spd
km/h
Gust
km/h
Spd
kts
Gust
kts
11/04:30pm 29.0 - - - - SSE 26 28 14 15 1005.7 - -
11/04:15pm 29.0 - - - - SSE 26 26 14 14 1005.5 1005.2 -
11/04:00pm 29.3 - - - - SSE 26 30 14 16 1005.5 - -
11/03:30pm 27.7 - - - - SE 17 20 9 11 1005.7 - -
11/03:15pm 27.8 - - - - SSE 37 - 20 - - 1005.4 -
11/03:00pm 29.2 - - - - SSE 22 28 12 15 1005.8 - -
11/02:30pm 28.9 - - - - SSE 26 32 14 17 1005.9 - -
11/02:15pm 29.2 - - - - SE 22 - 12 - - 1005.7 -
11/02:00pm 29.2 - - - - SSE 24 30 13 16 1006.1 - -
11/01:30pm 29.1 - - - - SSE 26 30 14 16 1006.3 - -
11/01:15pm 29.1 - - - - SSE 24 - 13 - - 1006.0 -
11/01:00pm 29.0 - - - - SSE 24 28 13 15 1006.5 - -
11/12:30pm 29.1 - - - - SSE 24 30 13 16 1006.8 - -
11/12:15pm 29.2 - - - - SSE 24 - 13 - - 1006.6 -
11/12:00pm 29.2 - - - - SSE 24 30 13 16 1007.0 - -
11/11:30am 29.0 - - - - SE 26 30 14 16 1007.5 - -
11/11:15am 29.3 - - - - SSE 26 - 14 - - 1007.4 -
11/11:00am 29.0 - - - - SSE 26 30 14 16 1008.0 - -
11/10:30am 29.3 - - - - SE 24 28 13 15 1008.1 - -
11/10:15am 29.0 - - - - SE 26 - 14 - - 1007.9 -
11/10:00am 29.0 - - - - SSE 28 32 15 17 1008.2 - -
11/09:30am 29.4 - - - - SSE 26 32 14 17 1008.2 - -
11/09:15am 29.1 - - - - SE 24 - 13 - - 1008.0 -
11/09:00am 29.2 - - - - SE 24 28 13 15 1008.3 - -
11/08:30am 29.5 - - - - SE 24 30 13 16 1008.2 - -
11/08:15am 29.1 - - - - SE 26 - 14 - - 1007.8 -
11/08:00am 29.0 - - - - SSE 24 30 13 16 1008.0 - -
11/07:30am 29.3 - - - - SSE 26 30 14 16 1007.7 - -
11/07:15am 29.1 - - - - SSE 26 - 14 - - 1007.1 -
11/07:00am 29.0 - - - - SE 26 32 14 17 1007.1 - -
11/06:30am 28.9 - - - - SE 26 33 14 18 1006.8 - -
11/06:15am 28.7 - - - - SSE 26 - 14 - - 1006.3 -
11/06:00am 28.7 - - - - SE 28 33 15 18 1006.5 - -
11/05:30am 28.6 - - - - SSE 26 32 14 17 1006.1 - -
11/05:15am 28.6 - - - - SE 26 - 14 - - 1005.7 -
11/05:00am 28.9 - - - - SE 30 32 16 17 1006.0 - -
11/04:30am 28.7 - - - - SSE 26 30 14 16 1005.8 - -
11/04:15am 28.6 - - - - SSE 24 - 13 - - 1005.4 -
11/04:00am 28.6 - - - - SSE 26 30 14 16 1005.6 - -
11/03:30am 28.7 - - - - SSE 28 32 15 17 1005.5 - -
11/03:15am 28.7 - - - - SSE 30 - 16 - - 1005.1 -
11/03:00am 28.7 - - - - SE 30 33 16 18 1005.4 - -
11/02:30am 28.6 - - - - SSE 30 35 16 19 1005.5 - -
11/02:15am 28.7 - - - - SSE 28 - 15 - - 1005.4 -
11/02:00am 28.5 - - - - SSE 32 35 17 19 1005.7 - -
11/01:30am 28.6 - - - - SSE 33 37 18 20 1005.8 - -
11/01:15am 28.6 - - - - SSE 33 - 18 - - 1005.6 -
11/01:00am 28.6 - - - - SE 33 39 18 21 1006.1 - -
11/12:30am 28.8 - - - - SSE 32 35 17 19 1006.6 - -
11/12:15am 28.7 - - - - SSE 33 - 18 - - 1006.3 -
11/12:00am 28.8 - - - - SE 35 43 19 23 1006.7 - -
 
Date/Time
EST
Temp
°C
App
Temp
°C
Dew
Point
Rel
Hum
%
Delta-T
°C
Wind Press
QNH
hPa
Press
MSL
hPa
Rain
since 9 am
mm
Dir
 
Spd
km/h
Gust
km/h
Spd
kts
Gust
kts
10/11:30pm 28.9 - - - - SSE 35 39 19 21 1007.0 - -
10/11:15pm 28.9 - - - - SE 33 - 18 - - 1007.2 -
10/11:00pm 28.9 - - - - SE 33 37 18 20 1007.6 - -
10/10:30pm 29.0 - - - - SE 35 41 19 22 1007.6 - -
10/10:15pm 29.0 - - - - SE 35 - 19 - - 1007.2 -
10/10:00pm 29.0 - - - - SE 37 43 20 23 1007.6 - -
10/09:30pm 29.0 - - - - SE 37 43 20 23 1007.5 - -
10/09:15pm 29.0 - - - - SE 35 - 19 - - 1007.1 -
10/09:00pm 29.1 - - - - SE 35 41 19 22 1007.5 - -
10/08:30pm 29.1 - - - - SSE 35 41 19 22 1007.5 - -
10/08:15pm 29.1 - - - - SSE 35 - 19 - - 1007.1 -
10/08:00pm 29.0 - - - - SSE 33 39 18 21 1007.3 - -
10/07:30pm 29.1 - - - - SSE 39 44 21 24 1006.8 - -
10/07:15pm 29.0 - - - - SSE 35 - 19 - - 1006.3 -
10/07:00pm 28.4 - - - - SSE 33 43 18 23 1006.6 - -
10/06:30pm 28.9 - - - - SSE 37 44 20 24 1006.4 - -
10/06:15pm 29.1 - - - - SSE 32 - 17 - - 1005.9 -
10/06:00pm 28.9 - - - - SSE 33 39 18 21 1006.1 - -
10/05:30pm 29.0 - - - - SSE 35 43 19 23 1005.7 - -
10/05:15pm 29.0 - - - - SSE 33 - 18 - - 1005.4 -
10/05:00pm 28.9 - - - - SSE 37 43 20 23 1005.5 - -
10/04:30pm 28.8 - - - - SE 39 43 21 23 1005.0 - -
10/04:15pm 28.6 - - - - SE 37 - 20 - - 1004.7 -
10/04:00pm 28.9 - - - - SSE 37 43 20 23 1005.0 - -
10/03:30pm 29.1 - - - - SSE 35 41 19 22 1005.1 - -
10/03:15pm 29.0 - - - - SSE 37 - 20 - - 1004.8 -
10/03:00pm 28.8 - - - - SSE 37 43 20 23 1005.1 - -
10/02:30pm 28.6 - - - - SSE 37 43 20 23 1005.2 - -
10/02:15pm 28.7 - - - - SSE 37 - 20 - - 1005.1 -
10/02:00pm 28.6 - - - - SSE 37 41 20 22 1005.3 - -
10/01:30pm 28.9 - - - - SSE 37 41 20 22 1005.8 - -
10/01:15pm 29.0 - - - - SSE 37 - 20 - - 1005.7 -
10/01:00pm 29.0 - - - - SSE 37 43 20 23 1006.1 - -
10/12:30pm 28.9 - - - - SSE 39 46 21 25 1006.2 - -
10/12:15pm 28.6 - - - - SSE 39 - 21 - - 1006.1 -
10/12:00pm 28.8 - - - - SSE 35 41 19 22 1006.5 - -
10/11:30am 29.0 - - - - SSE 37 41 20 22 1006.8 - -
10/11:15am 28.8 - - - - SSE 37 - 20 - - 1006.6 -
10/11:00am 28.9 - - - - SSE 33 39 18 21 1007.0 - -
10/10:30am 29.2 - - - - SSE 35 39 19 21 1007.1 - -
10/10:15am 28.8 - - - - SE 35 - 19 - - 1006.9 -
10/10:00am 28.9 - - - - SE 33 39 18 21 1007.3 - -
10/09:30am 27.7 - - - - SE 33 37 18 20 1007.6 - -
10/09:15am 28.0 - - - - SE 32 - 17 - - 1007.4 -
10/09:00am 27.0 - - - - SE 33 41 18 22 1007.5 - -
10/08:30am 27.6 - - - - ESE 30 33 16 18 1007.5 - -
10/08:15am 28.1 - - - - ESE 30 - 16 - - 1007.2 -
10/08:00am 27.7 - - - - ESE 30 35 16 19 1007.4 - -
10/07:30am 28.0 - - - - SSE 32 35 17 19 1006.8 - -
10/07:15am 28.3 - - - - SE 32 - 17 - - 1006.4 -
10/07:00am 28.4 - - - - SE 33 39 18 21 1006.5 - -
10/06:30am 29.0 - - - - SSE 32 35 17 19 1006.0 - -
10/06:15am 29.0 - - - - SSE 33 - 18 - - 1005.4 -
10/06:00am 28.9 - - - - SSE 32 39 17 21 1005.5 - -
10/05:30am 29.0 - - - - SSE 32 39 17 21 1005.1 - -
10/05:15am 29.0 - - - - SSE 33 - 18 - - 1004.7 -
10/05:00am 29.1 - - - - SSE 32 37 17 20 1005.0 - -
10/04:30am 29.0 - - - - SSE 33 41 18 22 1004.7 - -
10/04:15am 29.0 - - - - SSE 33 - 18 - - 1004.4 -
10/04:00am 29.0 - - - - SE 35 39 19 21 1004.7 - -
10/03:30am 29.0 - - - - SE 37 43 20 23 1004.6 - -
10/03:15am 29.1 - - - - SE 37 - 20 - - 1004.4 -
10/03:00am 29.1 - - - - SE 37 41 20 22 1004.7 - -
10/02:30am 29.1 - - - - SSE 37 43 20 23 1004.9 - -
10/02:15am 29.0 - - - - SSE 37 - 20 - - 1004.6 -
10/02:00am 29.0 - - - - SSE 37 43 20 23 1005.1 - -
10/01:30am 29.2 - - - - SE 39 44 21 24 1005.5 - -
10/01:15am 29.2 - - - - SSE 39 - 21 - - 1005.3 -
10/01:00am 29.2 - - - - SE 41 46 22 25 1005.8 - -
10/12:30am 29.3 - - - - SSE 39 44 21 24 1006.1 - -
10/12:15am 28.9 - - - - SSE 37 - 20 - - 1005.8 -
10/12:00am 28.7 - - - - SSE 37 48 20 26 1006.3 - -
 
Date/Time
EST
Temp
°C
App
Temp
°C
Dew
Point
Rel
Hum
%
Delta-T
°C
Wind Press
QNH
hPa
Press
MSL
hPa
Rain
since 9 am
mm
Dir
 
Spd
km/h
Gust
km/h
Spd
kts
Gust
kts
09/11:30pm 27.9 - - - - SE 39 46 21 25 1006.7 - -
09/11:15pm 27.7 - - - - SE 46 - 25 - - 1006.6 -
09/11:00pm 27.9 - - - - SE 41 50 22 27 1007.0 - -
09/10:30pm 27.1 - - - - SE 52 61 28 33 1007.5 - -
09/10:15pm 26.8 - - - - SSE 44 - 24 - - 1007.3 -
09/10:00pm 25.9 - - - - SE 54 61 29 33 1007.4 - -
09/09:42pm 25.9 - - - - SE 54 63 29 34 1007.4 - -
09/09:30pm 28.2 - - - - SSE 46 57 25 31 1007.5 - -
09/09:15pm 28.9 - - - - SSE 44 - 24 - - 1006.9 -
09/09:00pm 28.5 - - - - SSE 43 52 23 28 1007.0 - -
09/08:30pm 27.6 - - - - SSE 43 50 23 27 1007.3 - -
09/08:15pm 27.6 - - - - SSE 50 - 27 - - 1006.9 -
09/08:00pm 27.7 - - - - SSE 52 63 28 34 1006.6 - -
09/07:30pm 27.2 - - - - SE 39 48 21 26 1006.4 - -
09/07:15pm 26.9 - - - - SE 50 - 27 - - 1005.8 -
09/07:00pm 28.1 - - - - SE 44 50 24 27 1006.0 - -
09/06:30pm 27.5 - - - - SSE 46 56 25 30 1005.6 - -
09/06:15pm 26.9 - - - - SSE 54 - 29 - - 1005.2 -
09/06:00pm 28.1 - - - - SSE 44 50 24 27 1005.5 - -
09/05:30pm 28.1 - - - - S 48 56 26 30 1005.7 - -
09/05:15pm 28.4 - - - - SSE 44 - 24 - - 1005.0 -
09/05:00pm 27.9 - - - - SSE 41 46 22 25 1005.2 - -
09/04:30pm 28.0 - - - - SSE 41 48 22 26 1005.0 - -
09/04:15pm 28.2 - - - - SSE 43 - 23 - - 1004.7 -
09/04:00pm 28.9 - - - - SSE 35 43 19 23 1004.9 - -
09/03:30pm 28.6 - - - - SSE 37 44 20 24 1004.9 - -
09/03:15pm 28.8 - - - - SSE 39 - 21 - - 1004.6 -
09/03:00pm 28.3 - - - - SSE 41 48 22 26 1005.0 - -
09/02:30pm 29.1 - - - - SSE 39 46 21 25 1005.4 - -
09/02:15pm 29.1 - - - - SSE 39 - 21 - - 1005.2 -
09/02:00pm 29.1 - - - - SSE 37 43 20 23 1005.5 - -
09/01:30pm 29.6 - - - - SSE 35 39 19 21 1005.8 - -
09/01:15pm 29.4 - - - - SSE 28 - 15 - - 1005.7 -
09/01:00pm 28.9 - - - - SSE 35 41 19 22 1006.2 - -
09/12:30pm 29.3 - - - - SSE 35 41 19 22 1006.5 - -
09/12:15pm 29.2 - - - - SSE 39 - 21 - - 1006.4 -
09/12:00pm 29.3 - - - - SSE 37 41 20 22 1006.8 - -
09/11:30am 29.0 - - - - SSE 30 35 16 19 1007.2 - -
09/11:15am 29.4 - - - - SSE 32 - 17 - - 1007.0 -
09/11:00am 29.4 - - - - S 30 33 16 18 1007.4 - -
09/10:30am 29.3 - - - - SSE 33 37 18 20 1007.4 - -
09/10:15am 29.1 - - - - SSE 30 - 16 - - 1007.0 -
09/10:00am 29.1 - - - - SSE 33 41 18 22 1007.4 - -
09/09:30am 29.0 - - - - S 37 43 20 23 1007.2 - -
09/09:15am 29.2 - - - - SSE 35 - 19 - - 1006.6 -
09/09:00am 29.1 - - - - SSE 33 39 18 21 1007.0 - -
09/08:30am 29.5 - - - - SSE 37 41 20 22 1007.0 - -
09/08:15am 29.3 - - - - SSE 37 - 20 - - 1006.3 -
09/08:00am 29.1 - - - - SSE 39 44 21 24 1006.4 - -
09/07:30am 28.4 - - - - SSE 32 35 17 19 1006.5 - -
09/07:15am 28.1 - - - - SSE 35 - 19 - - 1006.4 -
09/07:00am 28.1 - - - - S 33 41 18 22 1006.7 - -
09/06:30am 28.1 - - - - S 39 48 21 26 1006.6 - -
09/06:15am 28.6 - - - - S 35 - 19 - - 1006.3 -
09/06:00am 28.9 - - - - S 32 43 17 23 1006.3 - -
09/05:30am 29.4 - - - - S 32 35 17 19 1006.0 - -
09/05:15am 29.1 - - - - S 32 - 17 - - 1005.7 -
09/05:00am 29.3 - - - - SSE 33 39 18 21 1005.7 - -
09/04:30am 28.9 - - - - SSE 33 43 18 23 1005.6 - -
09/04:15am 29.2 - - - - SSE 28 - 15 - - 1005.2 -
09/04:00am 29.4 - - - - SSE 32 37 17 20 1005.6 - -
09/03:30am 28.7 - - - - SSE 35 46 19 25 1005.4 - -
09/03:15am 29.0 - - - - SSE 32 - 17 - - 1005.1 -
09/03:00am 28.9 - - - - SSE 35 39 19 21 1005.5 - -
09/02:30am 28.9 - - - - SSE 35 44 19 24 1005.5 - -
09/02:15am 28.6 - - - - SSE 30 - 16 - - 1005.4 -
09/02:00am 29.0 - - - - SSE 28 33 15 18 1005.9 - -
09/01:30am 29.0 - - - - SSE 30 33 16 18 1006.3 - -
09/01:15am 29.3 - - - - SSE 32 - 17 - - 1006.0 -
09/01:00am 29.1 - - - - SSE 33 37 18 20 1006.4 - -
09/12:30am 29.5 - - - - SSE 30 33 16 18 1007.0 - -
09/12:15am 29.5 - - - - SSE 30 - 16 - - 1006.9 -
09/12:00am 29.5 - - - - SSE 32 35 17 19 1007.3 - -
 
Date/Time
EST
Temp
°C
App
Temp
°C
Dew
Point
Rel
Hum
%
Delta-T
°C
Wind Press
QNH
hPa
Press
MSL
hPa
Rain
since 9 am
mm
Dir
 
Spd
km/h
Gust
km/h
Spd
kts
Gust
kts
08/11:30pm 29.3 - - - - SSE 30 35 16 19 1007.7 - -
08/11:15pm 29.7 - - - - SSE 32 - 17 - - 1007.5 -
08/11:00pm 29.6 - - - - SSE 30 33 16 18 1007.8 - -
08/10:30pm 29.7 - - - - SSE 32 35 17 19 1008.0 - -
08/10:15pm 29.5 - - - - SSE 32 - 17 - - 1008.0 -
08/10:00pm 29.8 - - - - SSE 32 35 17 19 1008.2 - -
08/09:30pm 29.7 - - - - SSE 32 35 17 19 1007.9 - -
08/09:15pm 29.6 - - - - SSE 32 - 17 - - 1007.4 -
08/09:00pm 29.6 - - - - SSE 32 35 17 19 1007.6 - -
08/08:30pm 29.6 - - - - S 30 33 16 18 1007.4 - -
08/08:15pm 29.6 - - - - SSE 30 - 16 - - 1006.9 -
08/08:00pm 29.8 - - - - SSE 30 33 16 18 1007.3 - -
08/07:30pm 29.9 - - - - SSE 30 35 16 19 1007.2 - -
08/07:15pm 29.9 - - - - SSE 30 - 16 - - 1006.9 -
08/07:00pm 29.9 - - - - SSE 30 33 16 18 1007.3 - -
08/06:30pm 29.9 - - - - S 32 35 17 19 1007.1 - -
08/06:15pm 30.2 - - - - S 30 - 16 - - 1006.9 -
08/06:00pm 30.3 - - - - S 30 35 16 19 1007.1 - -
08/05:30pm 30.3 - - - - S 26 30 14 16 1006.8 - -
08/05:15pm 30.3 - - - - S 28 - 15 - - 1006.4 -
08/05:00pm 30.6 - - - - S 26 30 14 16 1006.4 - -

Other Formats:

Comma delimited format used in spreadsheet applications
http://www.bom.gov.au/fwo/IDQ60801/IDQ60801.94289.axf

JavaScript Object Notation format (JSON) in row-major order
http://www.bom.gov.au/fwo/IDQ60801/IDQ60801.94289.json